createdAt,value
2023-03-29T00:01:42.710Z,10.80
2023-03-29T00:04:20.261Z,13.00
2023-03-29T00:06:54.186Z,13.00
2023-03-29T00:09:28.318Z,11.50
2023-03-29T00:12:02.826Z,13.50
2023-03-29T00:14:36.677Z,11.60
2023-03-29T00:17:10.380Z,11.50
2023-03-29T00:19:47.228Z,11.90
2023-03-29T00:22:20.390Z,14.80
2023-03-29T00:24:56.080Z,15.80
2023-03-29T00:27:29.592Z,15.90
2023-03-29T00:30:04.514Z,11.90
2023-03-29T00:32:38.809Z,12.60
2023-03-29T00:35:12.807Z,12.50
2023-03-29T00:37:47.499Z,12.40
2023-03-29T00:40:21.371Z,12.20
2023-03-29T00:42:56.459Z,12.80
2023-03-29T00:45:31.957Z,12.70
2023-03-29T00:48:07.813Z,12.40
2023-03-29T00:50:45.863Z,13.50
2023-03-29T00:53:23.356Z,13.00
2023-03-29T00:56:02.057Z,13.90
2023-03-29T00:58:40.921Z,12.70
2023-03-29T01:01:21.054Z,12.30
2023-03-29T01:04:01.201Z,14.40
2023-03-29T01:06:39.764Z,12.60
2023-03-29T01:11:53.507Z,13.60
2023-03-29T01:14:34.168Z,10.30
2023-03-29T01:17:09.030Z,11.30
2023-03-29T01:19:50.633Z,12.00
2023-03-29T01:22:34.186Z,12.20
2023-03-29T01:25:18.112Z,13.50
2023-03-29T01:27:57.133Z,12.90
2023-03-29T01:30:36.066Z,14.90
2023-03-29T01:33:21.585Z,12.70
2023-03-29T01:36:02.724Z,12.00
2023-03-29T01:38:44.230Z,12.20
2023-03-29T01:41:18.175Z,12.30
2023-03-29T01:43:57.604Z,13.10
2023-03-29T01:46:41.744Z,14.30
2023-03-29T01:49:24.602Z,10.80
2023-03-29T01:52:03.157Z,10.50
2023-03-29T01:54:40.125Z,11.20
2023-03-29T01:57:14.809Z,10.60
2023-03-29T01:59:50.552Z,12.60
2023-03-29T02:02:26.410Z,13.50
2023-03-29T02:05:02.621Z,11.50
2023-03-29T02:07:38.941Z,11.60
2023-03-29T02:10:16.723Z,10.60
2023-03-29T02:12:50.995Z,11.70
2023-03-29T02:15:25.591Z,9.50
2023-03-29T02:17:59.004Z,13.90
2023-03-29T02:20:37.158Z,11.30
2023-03-29T02:23:15.822Z,11.90
2023-03-29T02:25:50.775Z,12.60
2023-03-29T02:28:26.464Z,10.10
2023-03-29T02:31:05.035Z,12.70
2023-03-29T02:33:46.392Z,12.80
2023-03-29T02:36:24.230Z,11.10
2023-03-29T02:39:01.012Z,12.30
2023-03-29T02:41:36.559Z,11.60
2023-03-29T02:44:14.442Z,11.90
2023-03-29T02:46:51.396Z,12.50
2023-03-29T02:49:25.661Z,12.40
2023-03-29T02:52:03.478Z,12.60
2023-03-29T02:54:44.007Z,10.70
2023-03-29T02:57:17.995Z,14.80
2023-03-29T02:59:51.904Z,13.30
2023-03-29T03:02:26.386Z,12.40
2023-03-29T03:05:00.559Z,11.70
2023-03-29T03:07:34.986Z,11.90
2023-03-29T03:10:10.634Z,16.30
2023-03-29T03:12:44.126Z,14.30
2023-03-29T03:15:18.140Z,11.70
2023-03-29T03:17:51.898Z,12.60
2023-03-29T03:20:26.932Z,12.00
2023-03-29T03:23:03.774Z,14.10
2023-03-29T03:25:37.644Z,12.70
2023-03-29T03:28:11.683Z,10.80
2023-03-29T03:30:46.029Z,11.90
2023-03-29T03:33:47.349Z,12.20
2023-03-29T03:36:41.499Z,11.30
2023-03-29T03:39:15.510Z,14.00
2023-03-29T03:41:49.660Z,12.90
2023-03-29T03:44:23.824Z,14.30
2023-03-29T03:47:14.133Z,13.20
2023-03-29T03:49:48.513Z,12.90
2023-03-29T03:52:23.004Z,11.60
2023-03-29T03:54:57.536Z,11.40
2023-03-29T03:57:55.079Z,12.10
2023-03-29T04:00:30.068Z,12.20
2023-03-29T04:03:26.415Z,11.80
2023-03-29T04:06:03.638Z,16.20
2023-03-29T04:08:46.630Z,12.30
2023-03-29T04:11:31.202Z,14.50
2023-03-29T04:14:05.282Z,12.30
2023-03-29T04:17:05.056Z,14.20
2023-03-29T04:20:12.961Z,13.10
2023-03-29T04:22:47.426Z,13.30
2023-03-29T04:25:21.821Z,14.90
2023-03-29T04:28:16.007Z,14.70
2023-03-29T04:31:14.769Z,14.80
2023-03-29T04:34:04.101Z,18.40
2023-03-29T04:36:38.171Z,17.00
2023-03-29T04:39:14.852Z,13.80
2023-03-29T04:41:50.512Z,17.30
2023-03-29T04:44:28.443Z,14.60
2023-03-29T04:47:03.806Z,15.20
2023-03-29T04:49:40.603Z,15.40
2023-03-29T04:52:17.851Z,14.40
2023-03-29T04:54:51.845Z,15.30
2023-03-29T04:57:31.818Z,13.60
2023-03-29T05:00:20.966Z,13.40
2023-03-29T05:03:11.931Z,16.50
2023-03-29T05:05:48.610Z,13.30
2023-03-29T05:08:22.487Z,14.80
2023-03-29T05:11:20.176Z,13.70
2023-03-29T05:13:56.006Z,12.70
2023-03-29T05:16:30.527Z,13.00
2023-03-29T05:19:04.322Z,12.10
2023-03-29T05:21:38.902Z,12.70
2023-03-29T05:24:14.738Z,13.90
2023-03-29T05:27:05.313Z,11.10
2023-03-29T05:29:40.440Z,16.90
2023-03-29T05:32:42.138Z,13.80
2023-03-29T05:35:16.535Z,13.30
2023-03-29T05:37:51.909Z,14.10
2023-03-29T05:40:27.333Z,10.30
2023-03-29T05:43:27.775Z,14.80
2023-03-29T05:46:01.931Z,12.80
2023-03-29T05:48:37.705Z,15.70
2023-03-29T05:51:11.956Z,15.50
2023-03-29T05:53:45.697Z,12.10
2023-03-29T05:56:19.471Z,14.80
2023-03-29T05:58:55.209Z,10.60
2023-03-29T06:01:31.036Z,12.90
2023-03-29T06:04:12.779Z,13.20
2023-03-29T06:06:53.477Z,12.40
2023-03-29T06:09:30.296Z,14.10
2023-03-29T06:12:12.530Z,15.10
2023-03-29T06:14:52.657Z,14.50
2023-03-29T06:17:32.098Z,14.80
2023-03-29T06:20:09.300Z,12.20
2023-03-29T06:22:44.534Z,15.90
2023-03-29T06:25:18.823Z,11.80
2023-03-29T06:27:54.791Z,13.50
2023-03-29T06:30:29.180Z,11.00
2023-03-29T06:33:03.980Z,12.40
2023-03-29T06:35:58.450Z,11.20
2023-03-29T06:38:34.354Z,12.20
2023-03-29T06:41:34.715Z,12.90
2023-03-29T06:44:15.670Z,11.90
2023-03-29T06:46:57.988Z,11.70
2023-03-29T06:49:32.146Z,11.10
2023-03-29T06:52:21.231Z,10.60
2023-03-29T06:54:55.643Z,11.00
2023-03-29T06:57:31.062Z,11.30
2023-03-29T07:00:15.495Z,8.80
2023-03-29T07:03:10.890Z,9.40
2023-03-29T07:05:45.303Z,12.90
2023-03-29T07:08:22.877Z,8.90
2023-03-29T07:11:09.422Z,11.50
2023-03-29T07:14:00.650Z,9.70
2023-03-29T07:16:37.287Z,11.50
2023-03-29T07:19:27.737Z,10.20
2023-03-29T07:22:01.297Z,10.60
2023-03-29T07:24:46.424Z,10.40
2023-03-29T07:27:21.141Z,10.50
2023-03-29T07:29:57.314Z,10.40
2023-03-29T07:32:34.293Z,9.40
2023-03-29T07:35:31.043Z,10.80
2023-03-29T07:38:06.050Z,9.60
2023-03-29T07:40:40.244Z,11.30
2023-03-29T07:43:52.231Z,12.10
2023-03-29T07:46:31.096Z,9.40
2023-03-29T07:49:05.075Z,9.90
2023-03-29T07:51:38.589Z,10.80
2023-03-29T07:54:15.680Z,9.70
2023-03-29T07:57:04.847Z,10.20
2023-03-29T07:59:49.110Z,9.00
2023-03-29T08:02:27.881Z,8.30
2023-03-29T08:05:04.090Z,8.50
2023-03-29T08:07:49.746Z,12.70
2023-03-29T08:10:24.209Z,9.70
2023-03-29T08:13:14.845Z,9.70
2023-03-29T08:15:54.701Z,10.10
2023-03-29T08:18:39.672Z,8.80
2023-03-29T08:21:15.035Z,8.00
2023-03-29T08:23:51.452Z,8.50
2023-03-29T08:26:28.798Z,7.80
2023-03-29T08:29:03.410Z,7.00
2023-03-29T08:31:37.373Z,9.60
2023-03-29T08:34:11.388Z,9.20
2023-03-29T08:37:05.423Z,7.00
2023-03-29T08:39:48.949Z,6.70
2023-03-29T08:42:55.155Z,8.60
2023-03-29T08:45:37.474Z,7.30
2023-03-29T08:48:23.545Z,6.50
2023-03-29T08:51:03.379Z,5.90
2023-03-29T08:53:44.515Z,6.10
2023-03-29T08:56:38.130Z,12.90
2023-03-29T08:59:22.789Z,6.40
2023-03-29T09:01:59.436Z,5.90
2023-03-29T09:04:38.072Z,4.60
2023-03-29T09:07:41.129Z,5.00
2023-03-29T09:10:19.906Z,4.50
2023-03-29T09:13:05.072Z,6.60
2023-03-29T09:15:45.657Z,4.00
2023-03-29T09:18:38.241Z,6.80
2023-03-29T09:21:24.186Z,5.40
2023-03-29T09:24:19.413Z,6.80
2023-03-29T09:27:05.718Z,6.20
2023-03-29T09:30:11.888Z,5.30
2023-03-29T09:33:14.262Z,6.10
2023-03-29T09:36:12.494Z,4.40
2023-03-29T09:38:51.241Z,4.40
2023-03-29T09:41:30.960Z,6.80
2023-03-29T09:44:23.890Z,7.20
2023-03-29T09:47:10.151Z,7.10
2023-03-29T09:49:48.735Z,5.20
2023-03-29T09:52:22.981Z,8.50
2023-03-29T09:55:08.102Z,6.60
2023-03-29T09:58:02.952Z,4.80
2023-03-29T10:00:40.338Z,4.70
2023-03-29T10:03:21.582Z,5.90
2023-03-29T10:06:12.559Z,6.30
2023-03-29T10:08:52.367Z,5.40
2023-03-29T10:11:34.074Z,5.70
2023-03-29T10:14:14.249Z,5.80
2023-03-29T10:16:56.606Z,7.40
2023-03-29T10:19:35.121Z,8.30
2023-03-29T10:22:16.750Z,7.40
2023-03-29T10:24:54.077Z,6.20
2023-03-29T10:27:29.771Z,7.80
2023-03-29T10:30:10.605Z,7.30
2023-03-29T10:32:44.399Z,7.90
2023-03-29T10:35:23.229Z,6.70
2023-03-29T10:37:59.779Z,5.80
2023-03-29T10:40:35.697Z,5.90
2023-03-29T10:43:23.245Z,5.30
2023-03-29T10:46:07.157Z,6.90
2023-03-29T10:48:41.248Z,5.70
2023-03-29T10:51:18.728Z,7.10
2023-03-29T10:53:53.106Z,7.30
2023-03-29T10:56:43.426Z,5.60
2023-03-29T10:59:29.313Z,5.60
2023-03-29T11:02:40.296Z,5.40
2023-03-29T11:05:31.356Z,6.10
2023-03-29T11:08:22.676Z,5.80
2023-03-29T11:11:06.615Z,6.00
2023-03-29T11:13:47.408Z,5.10
2023-03-29T11:16:32.787Z,8.00
2023-03-29T11:19:37.911Z,4.70
2023-03-29T11:22:20.042Z,5.10
2023-03-29T11:25:11.536Z,4.90
2023-03-29T11:27:53.909Z,7.30
2023-03-29T11:30:38.819Z,4.80
2023-03-29T11:33:29.357Z,5.90
2023-03-29T11:36:12.958Z,5.40
2023-03-29T11:38:57.517Z,7.30
2023-03-29T11:41:37.141Z,5.50
2023-03-29T11:44:16.732Z,9.30
2023-03-29T11:46:56.654Z,5.60
2023-03-29T11:49:35.790Z,6.90
2023-03-29T11:52:15.360Z,5.60
2023-03-29T11:54:55.968Z,8.50
2023-03-29T11:57:36.888Z,7.10
2023-03-29T12:00:19.308Z,8.20
2023-03-29T12:02:58.819Z,5.90
2023-03-29T12:05:40.002Z,4.60
2023-03-29T12:08:22.133Z,4.40
2023-03-29T12:11:04.070Z,7.50
2023-03-29T12:13:44.630Z,7.50
2023-03-29T12:16:25.608Z,5.20
2023-03-29T12:19:05.050Z,10.50
2023-03-29T12:21:39.819Z,9.60
2023-03-29T12:24:17.833Z,9.60
2023-03-29T12:27:08.715Z,6.30
2023-03-29T12:30:00.279Z,8.50
2023-03-29T12:32:48.353Z,5.70
2023-03-29T12:35:54.775Z,5.50
2023-03-29T12:38:32.642Z,6.30
2023-03-29T12:41:28.267Z,7.60
2023-03-29T12:44:23.812Z,5.60
2023-03-29T12:47:03.133Z,6.10
2023-03-29T12:49:41.191Z,6.00
2023-03-29T12:52:29.076Z,6.20
2023-03-29T12:57:46.146Z,6.20
2023-03-29T13:00:28.565Z,6.20
2023-03-29T13:03:07.781Z,6.80
2023-03-29T13:05:42.350Z,7.60
2023-03-29T13:08:28.408Z,6.20
2023-03-29T13:11:02.264Z,6.80
2023-03-29T13:13:38.744Z,7.00
2023-03-29T13:16:21.203Z,6.80
2023-03-29T13:19:19.931Z,5.40
2023-03-29T13:22:07.473Z,4.70
2023-03-29T13:25:01.632Z,5.60
2023-03-29T13:27:44.141Z,4.80
2023-03-29T13:30:44.409Z,4.60
2023-03-29T13:33:38.487Z,4.60
2023-03-29T13:36:24.600Z,4.60
2023-03-29T13:39:02.358Z,5.80
2023-03-29T13:41:50.705Z,6.70
2023-03-29T13:44:45.853Z,4.20
2023-03-29T13:47:38.786Z,5.20
2023-03-29T13:50:20.771Z,4.00
2023-03-29T13:53:05.784Z,5.80
2023-03-29T13:55:47.883Z,5.30
2023-03-29T13:58:34.259Z,5.30
2023-03-29T14:01:15.364Z,4.30
2023-03-29T14:03:51.945Z,7.20
2023-03-29T14:06:29.636Z,9.90
2023-03-29T14:09:08.525Z,3.50
2023-03-29T14:11:46.209Z,5.40
2023-03-29T14:14:24.418Z,6.20
2023-03-29T14:16:58.800Z,8.60
2023-03-29T14:19:37.931Z,5.70
2023-03-29T14:22:17.357Z,4.50
2023-03-29T14:24:57.257Z,8.80
2023-03-29T14:27:37.561Z,6.40
2023-03-29T14:30:27.917Z,5.50
2023-03-29T14:33:05.624Z,7.20
2023-03-29T14:35:40.737Z,5.90
2023-03-29T14:38:17.033Z,6.90
2023-03-29T14:40:50.884Z,4.90
2023-03-29T14:43:30.429Z,6.30
2023-03-29T14:46:08.680Z,5.80
2023-03-29T14:48:42.675Z,8.60
2023-03-29T14:51:17.158Z,6.00
2023-03-29T14:53:52.130Z,8.90
2023-03-29T14:56:26.916Z,4.60
2023-03-29T14:59:01.879Z,5.10
2023-03-29T15:01:45.194Z,8.20
2023-03-29T15:04:18.564Z,6.30
2023-03-29T15:06:53.126Z,5.90
2023-03-29T15:09:30.237Z,6.40
2023-03-29T15:12:05.353Z,6.60
2023-03-29T15:14:39.083Z,6.40
2023-03-29T15:17:42.665Z,7.40
2023-03-29T15:20:26.667Z,8.30
2023-03-29T15:23:05.703Z,7.30
2023-03-29T15:25:40.807Z,5.90
2023-03-29T15:28:29.240Z,8.70
2023-03-29T15:31:08.269Z,6.30
2023-03-29T15:33:43.899Z,7.00
2023-03-29T15:36:18.352Z,8.30
2023-03-29T15:38:52.242Z,8.30
2023-03-29T15:41:27.510Z,8.40
2023-03-29T15:44:01.727Z,7.20
2023-03-29T15:46:35.585Z,5.70
2023-03-29T15:49:11.338Z,6.60
2023-03-29T15:51:45.469Z,10.10
2023-03-29T15:54:19.242Z,8.30
2023-03-29T15:56:55.985Z,7.50
2023-03-29T15:59:30.209Z,7.60
2023-03-29T16:02:04.139Z,8.70
2023-03-29T16:04:38.248Z,9.40
2023-03-29T16:07:15.245Z,7.60
2023-03-29T16:09:49.259Z,8.40
2023-03-29T16:12:23.398Z,10.00
2023-03-29T16:14:57.451Z,6.80
2023-03-29T16:17:31.614Z,8.70
2023-03-29T16:20:07.579Z,9.60
2023-03-29T16:22:41.637Z,7.60
2023-03-29T16:25:18.152Z,8.30
2023-03-29T16:27:52.888Z,11.00
2023-03-29T16:30:27.265Z,8.20
2023-03-29T16:33:01.500Z,9.20
2023-03-29T16:35:37.337Z,7.20
2023-03-29T16:38:11.846Z,7.40
2023-03-29T16:40:45.477Z,8.20
2023-03-29T16:43:20.345Z,8.00
2023-03-29T16:45:54.333Z,11.10
2023-03-29T16:48:28.494Z,15.50
2023-03-29T16:51:03.580Z,11.90
2023-03-29T16:53:37.527Z,9.90
2023-03-29T16:56:12.408Z,12.90
2023-03-29T16:58:46.945Z,19.10
2023-03-29T17:01:23.031Z,19.40
2023-03-29T17:03:57.474Z,12.20
2023-03-29T17:06:32.516Z,12.50
2023-03-29T17:09:07.932Z,12.60
2023-03-29T17:11:42.577Z,9.50
2023-03-29T17:14:16.297Z,11.10
2023-03-29T17:16:49.870Z,10.60
2023-03-29T17:19:24.746Z,11.40
2023-03-29T17:22:00.453Z,11.70
2023-03-29T17:24:34.304Z,12.10
2023-03-29T17:27:12.522Z,13.50
2023-03-29T17:29:50.213Z,10.70
2023-03-29T17:32:25.220Z,12.90
2023-03-29T17:35:03.557Z,13.00
2023-03-29T17:40:14.777Z,11.20
2023-03-29T17:42:50.721Z,9.70
2023-03-29T17:45:27.010Z,11.10
2023-03-29T17:48:06.477Z,11.80
2023-03-29T17:50:44.775Z,12.30
2023-03-29T17:53:21.077Z,10.60
2023-03-29T17:55:56.745Z,12.00
2023-03-29T17:58:34.224Z,12.80
2023-03-29T18:01:13.251Z,12.20
2023-03-29T18:03:48.789Z,12.50
2023-03-29T18:06:26.011Z,12.70
2023-03-29T18:09:02.317Z,12.00
2023-03-29T18:11:39.381Z,20.10
2023-03-29T18:14:14.707Z,22.10
2023-03-29T18:16:50.909Z,18.60
2023-03-29T18:19:28.678Z,16.40
2023-03-29T18:22:05.315Z,14.40
2023-03-29T18:24:45.658Z,14.60
2023-03-29T18:27:23.070Z,15.60
2023-03-29T18:30:00.820Z,18.00
2023-03-29T18:32:37.571Z,15.80
2023-03-29T18:35:16.397Z,21.10
2023-03-29T18:37:54.056Z,18.30
2023-03-29T18:40:30.839Z,19.70
2023-03-29T18:43:09.546Z,20.40
2023-03-29T18:50:58.229Z,18.10
2023-03-29T18:53:33.242Z,21.90
2023-03-29T18:56:17.767Z,24.40
2023-03-29T18:58:55.205Z,24.00
2023-03-29T19:01:34.633Z,24.80
2023-03-29T19:04:14.046Z,26.50
2023-03-29T19:06:50.361Z,21.70
2023-03-29T19:09:28.446Z,21.50
2023-03-29T19:12:07.802Z,25.00
2023-03-29T19:14:44.248Z,17.90
2023-03-29T19:17:22.149Z,21.30
2023-03-29T19:19:59.960Z,24.90
2023-03-29T19:22:36.046Z,26.00
2023-03-29T19:25:15.563Z,27.10
2023-03-29T19:27:53.100Z,26.40
2023-03-29T19:30:34.691Z,32.30
2023-03-29T19:33:11.353Z,23.70
2023-03-29T19:35:48.565Z,25.50
2023-03-29T19:38:25.075Z,24.50
2023-03-29T19:41:02.588Z,25.80
2023-03-29T19:43:38.585Z,30.50
2023-03-29T19:46:17.863Z,25.10
2023-03-29T19:48:57.735Z,25.30
2023-03-29T19:51:37.790Z,27.50
2023-03-29T19:54:14.691Z,26.40
2023-03-29T19:56:52.457Z,23.50
2023-03-29T19:59:29.479Z,28.90
2023-03-29T20:02:06.704Z,25.40
2023-03-29T20:04:41.923Z,29.90
2023-03-29T20:07:20.151Z,24.20
2023-03-29T20:09:56.159Z,27.50
2023-03-29T20:12:30.990Z,29.10
2023-03-29T20:15:06.484Z,28.20
2023-03-29T20:17:44.051Z,27.70
2023-03-29T20:20:20.719Z,26.40
2023-03-29T20:23:05.034Z,30.30
2023-03-29T20:25:41.087Z,28.80
2023-03-29T20:28:14.943Z,30.80
2023-03-29T20:30:51.996Z,30.90
2023-03-29T20:33:25.778Z,33.20
2023-03-29T20:36:00.393Z,35.70
2023-03-29T20:38:34.473Z,36.20
2023-03-29T20:41:09.293Z,34.60
2023-03-29T20:43:44.136Z,36.00
2023-03-29T20:46:18.646Z,37.90
2023-03-29T20:48:54.618Z,36.10
2023-03-29T20:51:30.727Z,40.40
2023-03-29T20:54:06.419Z,37.10
2023-03-29T20:56:42.749Z,37.60
2023-03-29T20:59:16.421Z,40.20
2023-03-29T21:01:50.578Z,44.30
2023-03-29T21:04:25.001Z,38.30
2023-03-29T21:07:00.969Z,39.30
2023-03-29T21:09:36.807Z,42.20
2023-03-29T21:12:11.274Z,45.50
2023-03-29T21:14:45.019Z,46.80
2023-03-29T21:17:19.121Z,49.60
2023-03-29T21:19:53.507Z,44.70
2023-03-29T21:22:28.226Z,50.20
2023-03-29T21:25:01.780Z,41.40
2023-03-29T21:27:36.348Z,40.10
2023-03-29T21:30:12.232Z,40.10
2023-03-29T21:32:46.240Z,40.40
2023-03-29T21:35:19.997Z,40.60
2023-03-29T21:37:53.743Z,38.40
2023-03-29T21:40:27.104Z,38.90
2023-03-29T21:43:00.878Z,36.10
2023-03-29T21:45:34.520Z,39.00
2023-03-29T21:48:08.537Z,41.90
2023-03-29T21:50:42.195Z,43.10
2023-03-29T21:53:16.528Z,40.40
2023-03-29T21:55:51.636Z,37.40
2023-03-29T21:58:25.493Z,38.40
2023-03-29T22:00:59.995Z,33.70
2023-03-29T22:03:34.189Z,39.60
2023-03-29T22:06:10.186Z,39.70
2023-03-29T22:08:44.048Z,38.50
2023-03-29T22:11:18.810Z,42.00
2023-03-29T22:13:54.686Z,39.10
2023-03-29T22:16:29.320Z,40.70
2023-03-29T22:19:02.928Z,36.50
2023-03-29T22:21:37.752Z,36.10
2023-03-29T22:24:11.249Z,33.50
2023-03-29T22:26:45.670Z,37.00
2023-03-29T22:29:19.089Z,40.70
2023-03-29T22:31:53.109Z,36.20
2023-03-29T22:34:27.013Z,35.80
2023-03-29T22:37:01.014Z,39.00
2023-03-29T22:39:35.957Z,35.00
2023-03-29T22:42:09.533Z,32.90
2023-03-29T22:44:43.173Z,36.40
2023-03-29T22:47:16.926Z,33.90
2023-03-29T22:49:50.729Z,35.70
2023-03-29T22:52:24.496Z,31.90
2023-03-29T22:54:58.071Z,30.20
2023-03-29T22:57:31.656Z,31.30
2023-03-29T23:00:09.419Z,28.50
2023-03-29T23:02:43.623Z,32.10
2023-03-29T23:05:17.556Z,24.80
2023-03-29T23:07:51.327Z,22.20
2023-03-29T23:10:29.245Z,25.50
2023-03-29T23:13:09.215Z,24.30
2023-03-29T23:15:47.670Z,25.10
2023-03-29T23:18:22.559Z,21.80
2023-03-29T23:20:58.689Z,21.70
2023-03-29T23:23:32.810Z,23.70
2023-03-29T23:26:06.592Z,21.60
2023-03-29T23:28:41.418Z,22.80
2023-03-29T23:31:18.799Z,22.50
2023-03-29T23:33:53.434Z,24.30
2023-03-29T23:36:31.515Z,21.30
2023-03-29T23:39:08.411Z,24.00
2023-03-29T23:41:41.908Z,21.20
2023-03-29T23:44:16.275Z,20.70
2023-03-29T23:46:50.291Z,20.90
2023-03-29T23:49:24.366Z,21.90
2023-03-29T23:52:00.589Z,20.50
2023-03-29T23:54:34.388Z,21.70
2023-03-29T23:57:07.937Z,19.90
2023-03-29T23:59:41.433Z,19.80
